Impacts TAF Board
For situational awareness. Not to be used for flight planning purposes.
IDs:

KMDW - Chicago/Midway Intl, IL, US

Issued at 0530 UTC 27 Feb 2020
Updated at 0823 UTC 27 Feb 2020
Potential Impact None Slight Moderate High
Time<<27/21Z 27/22Z 27/23Z 28/00Z 28/01Z 28/02Z 28/03Z 28/04Z 28/05Z 28/06Z 28/07Z 28/08Z 28/09Z>>
Type PRVL PRVL PRVL PRVL PRVL PRVL PRVL PRVL PRVL PRVL PRVL PRVL PRVL
VIS >6 >6 >6 >6 >6 >6 >6 >6 >6 >6 >6 >6 >6
CIG 40 40 40 -- -- -- -- -- -- -- -- -- --
Cover BKN BKN BKN SCT SCT SCT SCT SCT SCT SCT SCT SCT SCT
FltCat VFR VFR VFR VFR VFR VFR VFR VFR VFR VFR VFR VFR VFR
WX -- -- -- -- -- -- -- -- -- -- -- -- --
WDir 290 290 290 300 300 300 300 300 300 300 300 300 300
WSpd 13 13 13 10 10 10 10 10 10 10 10 10 10
WGst 19 19 19 -- -- -- -- -- -- -- -- -- --
Raw TAF
KMDW 270530Z 2706/2812 31010KT P6SM OVC045
  FM271600 29013G19KT P6SM SCT025 BKN040
  FM280000 30010KT P6SM SCT030


METAR Board
Radar Display
Forecast Discussion
For situational awareness. Not to be used for flight planning purposes.